createdAt,value
2022-11-24T00:00:11.984Z,95.67
2022-11-24T00:01:11.986Z,95.78
2022-11-24T00:02:12.133Z,95.78
2022-11-24T00:03:12.081Z,95.78
2022-11-24T00:04:11.946Z,95.78
2022-11-24T00:05:11.925Z,95.78
2022-11-24T00:06:11.915Z,95.78
2022-11-24T00:07:11.951Z,95.67
2022-11-24T00:08:11.880Z,95.61
2022-11-24T00:09:11.904Z,95.36
2022-11-24T00:10:11.854Z,95.29
2022-11-24T00:11:11.848Z,95.19
2022-11-24T00:12:11.848Z,95.08
2022-11-24T00:13:11.879Z,95.08
2022-11-24T00:14:11.802Z,95.08
2022-11-24T00:15:11.796Z,94.98
2022-11-24T00:16:11.828Z,94.98
2022-11-24T00:17:11.811Z,94.87
2022-11-24T00:18:11.753Z,94.87
2022-11-24T00:19:15.800Z,94.77
2022-11-24T00:20:12.724Z,94.87
2022-11-24T00:21:11.723Z,94.87
2022-11-24T00:22:11.712Z,94.98
2022-11-24T00:23:11.750Z,94.98
2022-11-24T00:24:11.693Z,94.98
2022-11-24T00:25:11.662Z,95.08
2022-11-24T00:26:11.650Z,95.08
2022-11-24T00:27:11.652Z,95.08
2022-11-24T00:28:11.681Z,95.08
2022-11-24T00:29:11.638Z,95.08
2022-11-24T00:30:11.592Z,95.08
2022-11-24T00:31:16.792Z,94.98
2022-11-24T00:32:12.580Z,95.08
2022-11-24T00:33:11.574Z,95.08
2022-11-24T00:34:11.556Z,94.98
2022-11-24T00:35:11.530Z,94.98
2022-11-24T00:36:11.521Z,95.08
2022-11-24T00:37:11.518Z,95.19
2022-11-24T00:38:11.489Z,95.19
2022-11-24T00:39:11.497Z,95.29
2022-11-24T00:40:11.516Z,95.40
2022-11-24T00:41:11.458Z,95.40
2022-11-24T00:42:11.471Z,95.50
2022-11-24T00:43:11.438Z,95.50
2022-11-24T00:44:11.443Z,95.50
2022-11-24T00:45:14.239Z,95.50
2022-11-24T00:46:11.557Z,95.50
2022-11-24T00:47:11.537Z,95.50
2022-11-24T00:48:11.391Z,95.50
2022-11-24T00:49:11.378Z,95.61
2022-11-24T00:50:11.344Z,95.61
2022-11-24T00:51:11.343Z,95.61
2022-11-24T00:52:11.331Z,95.72
2022-11-24T00:53:11.304Z,95.72
2022-11-24T00:54:11.297Z,95.72
2022-11-24T00:55:11.292Z,95.72
2022-11-24T00:56:11.264Z,95.72
2022-11-24T00:57:11.329Z,95.72
2022-11-24T00:58:11.233Z,95.72
2022-11-24T00:59:11.276Z,95.72
2022-11-24T01:00:11.214Z,95.82
2022-11-24T01:01:11.564Z,95.92
2022-11-24T01:02:11.255Z,96.03
2022-11-24T01:03:11.171Z,96.13
2022-11-24T01:04:11.207Z,96.24
2022-11-24T01:05:11.146Z,96.34
2022-11-24T01:06:11.147Z,96.55
2022-11-24T01:07:11.188Z,96.61
2022-11-24T01:08:11.130Z,96.72
2022-11-24T01:09:11.107Z,96.83
2022-11-24T01:10:11.074Z,96.93
2022-11-24T01:11:11.079Z,97.03
2022-11-24T01:12:11.060Z,97.14
2022-11-24T01:13:11.037Z,97.14
2022-11-24T01:14:11.031Z,97.14
2022-11-24T01:15:11.010Z,97.24
2022-11-24T01:16:11.039Z,97.35
2022-11-24T01:17:11.229Z,97.45
2022-11-24T01:18:10.978Z,97.66
2022-11-24T01:19:10.963Z,97.66
2022-11-24T01:20:10.973Z,97.77
2022-11-24T01:21:11.029Z,97.87
2022-11-24T01:22:10.928Z,97.87
2022-11-24T01:23:10.934Z,97.87
2022-11-24T01:24:10.916Z,97.98
2022-11-24T01:25:10.885Z,97.98
2022-11-24T01:26:10.892Z,97.98
2022-11-24T01:27:10.882Z,97.98
2022-11-24T01:28:10.865Z,97.98
2022-11-24T01:29:11.789Z,98.08
2022-11-24T01:30:10.830Z,98.08
2022-11-24T01:31:10.877Z,98.25
2022-11-24T01:32:10.815Z,98.35
2022-11-24T01:33:10.793Z,98.46
2022-11-24T01:34:10.766Z,98.67
2022-11-24T01:35:10.803Z,98.67
2022-11-24T01:36:10.750Z,98.77
2022-11-24T01:37:10.747Z,98.88
2022-11-24T01:38:10.723Z,98.98
2022-11-24T01:39:10.695Z,99.08
2022-11-24T01:40:10.694Z,99.19
2022-11-24T01:41:10.685Z,99.19
2022-11-24T01:42:10.708Z,99.30
2022-11-24T01:43:10.645Z,99.30
2022-11-24T01:44:10.648Z,99.40
2022-11-24T01:45:10.634Z,99.51
2022-11-24T01:46:10.690Z,99.51
2022-11-24T01:47:10.604Z,99.57
2022-11-24T01:48:10.594Z,99.57
2022-11-24T01:49:10.582Z,99.67
2022-11-24T01:50:10.561Z,99.67
2022-11-24T01:51:10.557Z,99.67
2022-11-24T01:52:10.549Z,99.77
2022-11-24T01:53:10.516Z,99.88
2022-11-24T01:54:10.536Z,99.88
2022-11-24T01:55:10.491Z,99.88
2022-11-24T01:56:10.522Z,99.88
2022-11-24T01:57:10.471Z,99.88
2022-11-24T01:58:10.461Z,99.88
2022-11-24T01:59:10.433Z,99.88
2022-11-24T02:00:10.430Z,99.88
2022-11-24T02:01:10.501Z,99.88
2022-11-24T02:02:10.461Z,99.88
2022-11-24T02:03:10.388Z,99.88
2022-11-24T02:04:10.382Z,99.88
2022-11-24T02:05:10.366Z,99.88
2022-11-24T02:06:10.367Z,99.88
2022-11-24T02:07:10.427Z,99.88
2022-11-24T02:08:10.332Z,99.77
2022-11-24T02:09:10.310Z,99.77
2022-11-24T02:10:10.317Z,99.77
2022-11-24T02:11:10.312Z,99.88
2022-11-24T02:12:10.291Z,99.88
2022-11-24T02:13:10.254Z,99.88
2022-11-24T02:14:10.249Z,99.88
2022-11-24T02:15:10.238Z,99.88
2022-11-24T02:16:10.300Z,99.98
2022-11-24T02:17:10.254Z,99.98
2022-11-24T02:18:10.196Z,99.98
2022-11-24T02:19:10.186Z,99.98
2022-11-24T02:20:10.184Z,99.94
2022-11-24T02:21:10.147Z,99.94
2022-11-24T02:22:10.165Z,99.94
2022-11-24T02:23:10.126Z,99.94
2022-11-24T02:24:10.162Z,99.94
2022-11-24T02:25:10.105Z,99.99
2022-11-24T02:26:10.117Z,99.99
2022-11-24T02:27:10.085Z,99.99
2022-11-24T02:28:10.074Z,99.99
2022-11-24T02:29:10.045Z,99.99
2022-11-24T02:30:10.044Z,99.99
2022-11-24T02:31:10.084Z,99.99
2022-11-24T02:32:10.024Z,99.99
2022-11-24T02:33:09.994Z,99.99
2022-11-24T02:34:09.996Z,99.99
2022-11-24T02:35:09.981Z,99.99
2022-11-24T02:36:09.985Z,99.99
2022-11-24T02:37:09.962Z,99.99
2022-11-24T02:38:09.942Z,99.99
2022-11-24T02:39:09.950Z,99.99
2022-11-24T02:40:09.927Z,99.99
2022-11-24T02:41:09.891Z,99.99
2022-11-24T02:42:09.902Z,99.99
2022-11-24T02:43:09.899Z,99.99
2022-11-24T02:44:09.891Z,99.99
2022-11-24T02:45:09.865Z,99.99
2022-11-24T02:46:09.874Z,99.99
2022-11-24T02:47:09.840Z,99.99
2022-11-24T02:48:09.812Z,99.99
2022-11-24T02:49:09.799Z,99.99
2022-11-24T02:50:09.780Z,99.99
2022-11-24T02:51:09.775Z,99.99
2022-11-24T02:52:09.779Z,99.99
2022-11-24T02:53:09.738Z,99.99
2022-11-24T02:54:09.740Z,99.99
2022-11-24T02:55:09.736Z,99.99
2022-11-24T02:56:09.737Z,99.99
2022-11-24T02:57:09.716Z,99.99
2022-11-24T02:58:09.718Z,99.99
2022-11-24T02:59:09.657Z,99.99
2022-11-24T03:00:09.656Z,99.99
2022-11-24T03:01:09.691Z,99.99
2022-11-24T03:02:09.646Z,99.99
2022-11-24T03:03:09.741Z,99.99
2022-11-24T03:04:09.605Z,99.99
2022-11-24T03:05:09.608Z,99.99
2022-11-24T03:06:09.596Z,99.99
2022-11-24T03:07:09.644Z,99.99
2022-11-24T03:08:09.551Z,99.99
2022-11-24T03:09:09.542Z,99.99
2022-11-24T03:10:09.559Z,99.99
2022-11-24T03:11:09.507Z,99.99
2022-11-24T03:12:09.582Z,99.99
2022-11-24T03:13:09.523Z,99.99
2022-11-24T03:14:09.509Z,99.99
2022-11-24T03:15:09.464Z,99.99
2022-11-24T03:16:09.500Z,99.99
2022-11-24T03:17:09.476Z,99.99
2022-11-24T03:18:09.425Z,99.99
2022-11-24T03:19:09.495Z,99.99
2022-11-24T03:20:09.409Z,99.99
2022-11-24T03:21:09.390Z,99.99
2022-11-24T03:22:09.406Z,99.99
2022-11-24T03:23:09.360Z,99.99
2022-11-24T03:24:09.341Z,99.99
2022-11-24T03:25:09.342Z,99.99
2022-11-24T03:26:09.374Z,99.99
2022-11-24T03:27:09.310Z,99.99
2022-11-24T03:28:09.292Z,99.99
2022-11-24T03:29:09.272Z,99.99
2022-11-24T03:30:09.270Z,99.99
2022-11-24T03:31:09.330Z,99.99
2022-11-24T03:32:09.251Z,99.99
2022-11-24T03:33:09.235Z,99.99
2022-11-24T03:34:09.239Z,99.99
2022-11-24T03:35:09.203Z,99.99
2022-11-24T03:36:09.227Z,99.99
2022-11-24T03:37:09.204Z,99.99
2022-11-24T03:38:09.170Z,99.99
2022-11-24T03:39:09.169Z,99.99
2022-11-24T03:40:09.149Z,99.99
2022-11-24T03:41:09.117Z,99.99
2022-11-24T03:42:09.139Z,99.99
2022-11-24T03:43:09.108Z,99.99
2022-11-24T03:44:09.098Z,99.99
2022-11-24T03:45:37.942Z,99.99
2022-11-24T03:46:10.086Z,99.99
2022-11-24T03:47:09.090Z,99.99
2022-11-24T03:48:09.056Z,99.99
2022-11-24T03:49:09.027Z,99.99
2022-11-24T03:50:09.032Z,99.99
2022-11-24T03:51:09.015Z,99.99
2022-11-24T03:52:09.017Z,99.99
2022-11-24T03:53:08.963Z,99.99
2022-11-24T03:54:08.955Z,99.99
2022-11-24T03:55:08.956Z,99.99
2022-11-24T03:56:08.944Z,99.99
2022-11-24T03:57:08.924Z,99.99
2022-11-24T03:58:08.914Z,99.99
2022-11-24T03:59:08.886Z,99.99
2022-11-24T04:00:08.887Z,99.99
2022-11-24T04:01:08.891Z,99.99
2022-11-24T04:02:08.948Z,99.99
2022-11-24T04:03:08.889Z,99.99
2022-11-24T04:04:08.865Z,99.99
2022-11-24T04:05:08.810Z,99.99
2022-11-24T04:06:08.800Z,99.99
2022-11-24T04:07:08.860Z,99.99
2022-11-24T04:08:08.778Z,99.99
2022-11-24T04:09:08.759Z,99.99
2022-11-24T04:10:08.752Z,99.99
2022-11-24T04:11:08.745Z,99.99
2022-11-24T04:12:08.743Z,99.99
2022-11-24T04:13:08.716Z,99.99
2022-11-24T04:14:13.400Z,99.99
2022-11-24T04:15:09.701Z,99.99
2022-11-24T04:16:08.725Z,99.99
2022-11-24T04:17:08.683Z,99.99
2022-11-24T04:18:08.654Z,99.99
2022-11-24T04:19:08.643Z,99.99
2022-11-24T04:20:08.630Z,99.99
2022-11-24T04:21:08.616Z,99.99
2022-11-24T04:22:08.655Z,99.99
2022-11-24T04:23:08.605Z,99.99
2022-11-24T04:24:08.595Z,99.99
2022-11-24T04:25:08.550Z,99.99
2022-11-24T04:26:08.556Z,99.99
2022-11-24T04:27:08.543Z,99.99
2022-11-24T04:28:08.546Z,99.99
2022-11-24T04:29:08.506Z,99.99
2022-11-24T04:30:08.499Z,99.99
2022-11-24T04:31:08.529Z,99.99
2022-11-24T04:32:08.499Z,99.99
2022-11-24T04:33:08.444Z,99.99
2022-11-24T04:34:08.456Z,99.99
2022-11-24T04:35:08.444Z,99.99
2022-11-24T04:36:08.416Z,99.99
2022-11-24T04:37:08.410Z,99.99
2022-11-24T04:38:08.384Z,99.99
2022-11-24T04:39:25.933Z,99.99
2022-11-24T04:40:09.381Z,99.99
2022-11-24T04:41:08.363Z,99.99
2022-11-24T04:42:08.374Z,99.99
2022-11-24T04:43:08.323Z,99.99
2022-11-24T04:44:08.312Z,99.99
2022-11-24T04:45:08.291Z,99.99
2022-11-24T04:46:08.303Z,99.99
2022-11-24T04:47:08.293Z,99.99
2022-11-24T04:48:08.250Z,99.99
2022-11-24T04:49:08.242Z,99.99
2022-11-24T04:50:08.223Z,99.99
2022-11-24T04:51:08.211Z,99.99
2022-11-24T04:52:08.210Z,99.99
2022-11-24T04:53:08.213Z,99.99
2022-11-24T04:54:08.172Z,99.99
2022-11-24T04:55:08.162Z,99.99
2022-11-24T04:56:08.151Z,99.99
2022-11-24T04:57:08.160Z,99.99
2022-11-24T04:58:08.129Z,99.99
2022-11-24T04:59:08.735Z,99.99
2022-11-24T05:00:08.107Z,99.99
2022-11-24T05:01:08.079Z,99.99
2022-11-24T05:02:08.126Z,99.99
2022-11-24T05:03:08.071Z,99.99
2022-11-24T05:04:08.095Z,99.99
2022-11-24T05:05:08.037Z,99.99
2022-11-24T05:06:08.019Z,99.99
2022-11-24T05:07:08.088Z,99.99
2022-11-24T05:08:07.989Z,99.99
2022-11-24T05:09:07.983Z,99.99
2022-11-24T05:10:07.970Z,99.99
2022-11-24T05:11:07.982Z,99.99
2022-11-24T05:12:07.958Z,99.99
2022-11-24T05:13:08.005Z,99.99
2022-11-24T05:14:07.918Z,99.99
2022-11-24T05:15:07.904Z,99.99
2022-11-24T05:16:07.948Z,99.99
2022-11-24T05:17:07.885Z,99.99
2022-11-24T05:18:07.864Z,99.99
2022-11-24T05:19:07.854Z,99.99
2022-11-24T05:20:07.837Z,99.99
2022-11-24T05:21:07.825Z,99.99
2022-11-24T05:22:07.835Z,99.99
2022-11-24T05:23:07.813Z,99.99
2022-11-24T05:24:07.783Z,99.99
2022-11-24T05:25:07.788Z,99.99
2022-11-24T05:26:07.761Z,99.99
2022-11-24T05:27:07.761Z,99.99
2022-11-24T05:28:07.722Z,99.99
2022-11-24T05:29:07.729Z,99.99
2022-11-24T05:30:07.709Z,99.99
2022-11-24T05:31:07.759Z,99.99
2022-11-24T05:32:07.710Z,99.99
2022-11-24T05:33:07.684Z,99.99
2022-11-24T05:34:07.668Z,99.99
2022-11-24T05:35:07.640Z,99.99
2022-11-24T05:36:07.621Z,99.99
2022-11-24T05:37:07.648Z,99.99
2022-11-24T05:38:07.602Z,99.99
2022-11-24T05:39:07.581Z,99.99
2022-11-24T05:40:07.579Z,99.99
2022-11-24T05:41:07.590Z,99.99
2022-11-24T05:42:07.549Z,99.99
2022-11-24T05:43:07.540Z,99.99
2022-11-24T05:44:07.519Z,99.99
2022-11-24T05:45:07.526Z,99.99
2022-11-24T05:46:07.511Z,99.99
2022-11-24T05:47:07.580Z,99.99
2022-11-24T05:48:07.460Z,99.99
2022-11-24T05:49:07.458Z,99.99
2022-11-24T05:50:07.456Z,99.99
2022-11-24T05:51:09.434Z,99.99
2022-11-24T05:52:07.427Z,99.99
2022-11-24T05:53:07.416Z,99.99
2022-11-24T05:54:07.388Z,99.99
2022-11-24T05:55:07.375Z,99.99
2022-11-24T05:56:07.365Z,99.99
2022-11-24T05:57:07.366Z,99.99
2022-11-24T05:58:07.335Z,99.99
2022-11-24T05:59:09.915Z,99.99
2022-11-24T06:00:07.314Z,99.99
2022-11-24T06:01:07.316Z,99.99
2022-11-24T06:02:07.401Z,99.99
2022-11-24T06:03:07.380Z,99.99
2022-11-24T06:04:07.263Z,99.99
2022-11-24T06:05:07.243Z,99.99
2022-11-24T06:06:07.240Z,99.99
2022-11-24T06:07:07.305Z,99.99
2022-11-24T06:08:07.201Z,99.99
2022-11-24T06:09:07.193Z,99.99
2022-11-24T06:10:07.187Z,99.99
2022-11-24T06:11:07.171Z,99.99
2022-11-24T06:12:07.198Z,99.99
2022-11-24T06:13:07.216Z,99.99
2022-11-24T06:14:11.137Z,99.99
2022-11-24T06:15:07.108Z,99.99
2022-11-24T06:16:07.140Z,99.99
2022-11-24T06:17:07.108Z,99.99
2022-11-24T06:18:07.072Z,99.99
2022-11-24T06:19:07.053Z,99.99
2022-11-24T06:20:07.053Z,99.99
2022-11-24T06:21:11.551Z,99.99
2022-11-24T06:22:07.049Z,99.99
2022-11-24T06:23:07.008Z,99.99
2022-11-24T06:24:06.990Z,99.99
2022-11-24T06:25:06.978Z,99.99
2022-11-24T06:26:07.035Z,99.99
2022-11-24T06:27:06.960Z,99.99
2022-11-24T06:28:06.946Z,99.99
2022-11-24T06:29:06.930Z,99.99
2022-11-24T06:30:06.923Z,99.99
2022-11-24T06:31:06.908Z,99.99
2022-11-24T06:32:06.989Z,99.99
2022-11-24T06:33:06.876Z,99.99
2022-11-24T06:34:06.877Z,99.99
2022-11-24T06:35:06.848Z,99.99
2022-11-24T06:36:06.836Z,99.99
2022-11-24T06:37:06.842Z,99.99
2022-11-24T06:38:06.804Z,99.99
2022-11-24T06:39:06.802Z,99.99
2022-11-24T06:40:06.786Z,99.99
2022-11-24T06:41:06.767Z,99.99
2022-11-24T06:42:06.767Z,99.99
2022-11-24T06:43:06.746Z,99.99
2022-11-24T06:44:06.756Z,99.99
2022-11-24T06:45:09.302Z,99.99
2022-11-24T06:46:06.780Z,99.99
2022-11-24T06:47:06.714Z,99.99
2022-11-24T06:48:06.691Z,99.99
2022-11-24T06:49:06.664Z,99.99
2022-11-24T06:50:06.660Z,99.99
2022-11-24T06:51:06.641Z,99.99
2022-11-24T06:52:06.632Z,99.99
2022-11-24T06:53:06.635Z,99.99
2022-11-24T06:54:06.611Z,99.99
2022-11-24T06:55:06.594Z,99.99
2022-11-24T06:56:09.439Z,99.99
2022-11-24T06:57:07.598Z,99.99
2022-11-24T06:58:53.771Z,99.99
2022-11-24T06:59:06.532Z,99.99
2022-11-24T07:00:06.585Z,99.99
2022-11-24T07:01:06.570Z,99.99
2022-11-24T07:02:06.500Z,99.99
2022-11-24T07:03:06.502Z,99.99
2022-11-24T07:04:06.471Z,99.99
2022-11-24T07:05:06.479Z,99.99
2022-11-24T07:06:06.448Z,99.99
2022-11-24T07:07:06.557Z,99.99
2022-11-24T07:08:06.432Z,99.99
2022-11-24T07:09:06.417Z,99.99
2022-11-24T07:10:06.389Z,99.99
2022-11-24T07:11:06.377Z,99.99
2022-11-24T07:12:06.377Z,99.99
2022-11-24T07:13:06.350Z,99.99
2022-11-24T07:14:06.358Z,99.99
2022-11-24T07:15:06.338Z,99.99
2022-11-24T07:16:06.335Z,99.99
2022-11-24T07:17:06.311Z,99.99
2022-11-24T07:18:06.287Z,99.99
2022-11-24T07:19:06.288Z,99.99
2022-11-24T07:20:06.277Z,99.99
2022-11-24T07:21:06.286Z,99.99
2022-11-24T07:22:07.450Z,99.99
2022-11-24T07:23:06.235Z,99.99
2022-11-24T07:24:06.209Z,99.99
2022-11-24T07:25:06.205Z,99.99
2022-11-24T07:26:07.085Z,99.99
2022-11-24T07:27:06.177Z,99.99
2022-11-24T07:28:06.155Z,99.99
2022-11-24T07:29:06.161Z,99.99
2022-11-24T07:30:06.137Z,99.99
2022-11-24T07:31:06.118Z,99.99
2022-11-24T07:32:06.141Z,99.99
2022-11-24T07:33:06.122Z,99.99
2022-11-24T07:34:06.074Z,99.99
2022-11-24T07:35:06.093Z,99.99
2022-11-24T07:36:06.046Z,99.99
2022-11-24T07:37:06.064Z,99.99
2022-11-24T07:38:06.062Z,99.99
2022-11-24T07:39:06.014Z,99.99
2022-11-24T07:40:06.041Z,99.99
2022-11-24T07:41:05.985Z,99.99
2022-11-24T07:42:06.003Z,99.99
2022-11-24T07:43:05.961Z,99.99
2022-11-24T07:44:05.943Z,99.99
2022-11-24T07:45:05.932Z,99.99
2022-11-24T07:46:05.961Z,99.99
2022-11-24T07:47:05.928Z,99.99
2022-11-24T07:48:05.907Z,99.99
2022-11-24T07:49:05.882Z,99.99
2022-11-24T07:50:05.860Z,99.99
2022-11-24T07:51:05.873Z,99.99
2022-11-24T07:52:05.865Z,99.99
2022-11-24T07:53:05.839Z,99.99
2022-11-24T07:54:05.811Z,99.99
2022-11-24T07:55:05.808Z,99.99
2022-11-24T07:56:05.786Z,99.99
2022-11-24T07:57:05.803Z,99.99
2022-11-24T07:58:05.768Z,99.99
2022-11-24T07:59:05.749Z,99.99
2022-11-24T08:00:05.752Z,99.99
2022-11-24T08:01:05.761Z,99.99
2022-11-24T08:02:05.809Z,99.99
2022-11-24T08:03:05.699Z,99.99
2022-11-24T08:04:05.722Z,99.99
2022-11-24T08:05:05.676Z,99.99
2022-11-24T08:07:06.748Z,99.99
2022-11-24T08:08:05.650Z,99.99
2022-11-24T08:09:05.617Z,99.99
2022-11-24T08:10:05.606Z,99.99
2022-11-24T08:11:05.636Z,99.99
2022-11-24T08:12:05.641Z,99.99
2022-11-24T08:13:05.597Z,99.99
2022-11-24T08:14:05.559Z,99.99
2022-11-24T08:15:10.963Z,99.99
2022-11-24T08:16:06.625Z,99.99
2022-11-24T08:17:05.639Z,99.99
2022-11-24T08:18:05.516Z,99.99
2022-11-24T08:19:05.509Z,99.99
2022-11-24T08:20:05.476Z,99.99
2022-11-24T08:21:05.464Z,99.99
2022-11-24T08:22:05.473Z,99.99
2022-11-24T08:23:05.453Z,99.99
2022-11-24T08:24:05.427Z,99.99
2022-11-24T08:25:05.420Z,99.99
2022-11-24T08:26:05.406Z,99.99
2022-11-24T08:27:05.405Z,99.99
2022-11-24T08:28:05.383Z,99.99
2022-11-24T08:29:05.402Z,99.99
2022-11-24T08:30:05.364Z,99.99
2022-11-24T08:31:05.342Z,99.99
2022-11-24T08:32:05.359Z,99.99
2022-11-24T08:33:05.315Z,99.99
2022-11-24T08:34:05.317Z,99.99
2022-11-24T08:35:20.451Z,99.99
2022-11-24T08:36:06.268Z,99.99
2022-11-24T08:37:05.302Z,99.99
2022-11-24T08:38:05.267Z,99.99
2022-11-24T08:39:05.254Z,99.99
2022-11-24T08:40:05.245Z,99.99
2022-11-24T08:41:05.214Z,99.99
2022-11-24T08:42:05.211Z,99.99
2022-11-24T08:43:05.182Z,99.99
2022-11-24T08:44:05.231Z,99.99
2022-11-24T08:45:19.979Z,99.99
2022-11-24T08:46:06.256Z,99.99
2022-11-24T08:47:05.164Z,99.99
2022-11-24T08:48:05.121Z,99.99
2022-11-24T08:49:05.109Z,99.99
2022-11-24T08:50:05.081Z,99.99
2022-11-24T08:51:20.568Z,99.99
2022-11-24T08:52:05.070Z,99.99
2022-11-24T08:53:05.047Z,99.99
2022-11-24T08:54:05.038Z,99.99
2022-11-24T08:55:05.017Z,99.99
2022-11-24T08:56:05.009Z,99.99
2022-11-24T08:57:05.030Z,99.99
2022-11-24T08:58:04.997Z,99.99
2022-11-24T08:59:05.044Z,99.99
2022-11-24T09:00:04.978Z,99.99
2022-11-24T09:01:05.034Z,99.99
2022-11-24T09:02:05.049Z,99.99
2022-11-24T09:03:04.918Z,99.99
2022-11-24T09:04:04.984Z,99.99
2022-11-24T09:05:07.249Z,99.99
2022-11-24T09:06:05.905Z,99.99
2022-11-24T09:07:04.888Z,99.99
2022-11-24T09:08:04.857Z,99.99
2022-11-24T09:09:04.857Z,99.99
2022-11-24T09:10:04.826Z,99.99
2022-11-24T09:11:04.822Z,99.99
2022-11-24T09:12:06.584Z,99.99
2022-11-24T09:13:05.785Z,99.99
2022-11-24T09:14:04.820Z,99.99
2022-11-24T09:15:04.753Z,99.99
2022-11-24T09:16:04.764Z,99.99
2022-11-24T09:17:04.800Z,99.99
2022-11-24T09:18:04.734Z,99.99
2022-11-24T09:19:04.706Z,99.99
2022-11-24T09:20:04.705Z,99.99
2022-11-24T09:21:04.674Z,99.99
2022-11-24T09:22:04.675Z,99.99
2022-11-24T09:23:04.656Z,99.99
2022-11-24T09:24:04.632Z,99.99
2022-11-24T09:25:04.613Z,99.99
2022-11-24T09:26:04.603Z,99.99
2022-11-24T09:27:04.611Z,99.99
2022-11-24T09:28:04.581Z,99.99
2022-11-24T09:29:04.598Z,99.99
2022-11-24T09:30:04.566Z,99.99
2022-11-24T09:31:04.656Z,99.99
2022-11-24T09:32:06.925Z,99.99
2022-11-24T09:33:04.538Z,99.99
2022-11-24T09:34:04.511Z,99.99
2022-11-24T09:35:04.489Z,99.99
2022-11-24T09:36:04.489Z,99.99
2022-11-24T09:37:04.470Z,99.99
2022-11-24T09:38:04.480Z,99.99
2022-11-24T09:39:04.447Z,99.99
2022-11-24T09:40:04.409Z,99.99
2022-11-24T09:41:04.430Z,99.99
2022-11-24T09:42:04.423Z,99.99
2022-11-24T09:43:04.388Z,99.99
2022-11-24T09:44:04.377Z,99.99
2022-11-24T09:45:04.376Z,99.99
2022-11-24T09:46:05.880Z,99.99
2022-11-24T09:47:05.261Z,99.99
2022-11-24T09:48:04.319Z,99.99
2022-11-24T09:49:04.297Z,99.99
2022-11-24T09:50:04.288Z,99.99
2022-11-24T09:51:04.305Z,99.99
2022-11-24T09:52:04.269Z,99.99
2022-11-24T09:53:04.306Z,99.99
2022-11-24T09:54:04.239Z,99.99
2022-11-24T09:55:04.228Z,99.99
2022-11-24T09:56:04.226Z,99.99
2022-11-24T09:57:04.243Z,99.99
2022-11-24T09:58:04.185Z,99.99
2022-11-24T09:59:04.178Z,99.99
2022-11-24T10:00:04.155Z,99.99
2022-11-24T10:01:04.197Z,99.99
2022-11-24T10:02:04.226Z,99.99
2022-11-24T10:03:04.144Z,99.99
2022-11-24T10:04:06.335Z,99.99
2022-11-24T10:05:04.141Z,99.99
2022-11-24T10:06:04.080Z,99.99
2022-11-24T10:07:04.088Z,99.99
2022-11-24T10:08:04.065Z,99.99
2022-11-24T10:09:04.082Z,99.99
2022-11-24T10:10:04.035Z,99.99
2022-11-24T10:11:04.089Z,99.99
2022-11-24T10:12:04.035Z,99.99
2022-11-24T10:13:03.987Z,99.99
2022-11-24T10:14:03.963Z,99.99
2022-11-24T10:15:03.978Z,99.99
2022-11-24T10:16:03.983Z,99.99
2022-11-24T10:17:03.953Z,99.99
2022-11-24T10:18:03.923Z,99.99
2022-11-24T10:19:03.894Z,99.99
2022-11-24T10:20:03.899Z,99.99
2022-11-24T10:21:03.914Z,99.99
2022-11-24T10:22:03.897Z,99.99
2022-11-24T10:23:03.876Z,99.99
2022-11-24T10:24:03.847Z,99.99
2022-11-24T10:25:03.834Z,99.99
2022-11-24T10:26:03.840Z,99.99
2022-11-24T10:27:03.818Z,99.99
2022-11-24T10:28:03.781Z,99.99
2022-11-24T10:29:03.803Z,99.99
2022-11-24T10:30:03.772Z,99.99
2022-11-24T10:31:03.764Z,99.99
2022-11-24T10:32:03.795Z,99.99
2022-11-24T10:33:03.724Z,99.99
2022-11-24T10:34:03.702Z,99.99
2022-11-24T10:35:03.709Z,99.99
2022-11-24T10:36:03.700Z,99.99
2022-11-24T10:37:03.692Z,99.99
2022-11-24T10:38:03.659Z,99.99
2022-11-24T10:39:03.649Z,99.99
2022-11-24T10:40:03.632Z,99.99
2022-11-24T10:41:03.624Z,99.99
2022-11-24T10:42:03.608Z,99.99
2022-11-24T10:43:03.598Z,99.99
2022-11-24T10:44:03.577Z,99.99
2022-11-24T10:45:03.580Z,99.99
2022-11-24T10:46:03.625Z,99.99
2022-11-24T10:47:03.560Z,99.99
2022-11-24T10:48:03.527Z,99.99
2022-11-24T10:49:03.557Z,99.99
2022-11-24T10:50:03.527Z,99.91
2022-11-24T10:51:03.489Z,99.66
2022-11-24T10:52:03.502Z,99.56
2022-11-24T10:53:03.476Z,99.46
2022-11-24T10:54:03.441Z,99.15
2022-11-24T10:55:03.456Z,99.05
2022-11-24T10:56:03.421Z,98.94
2022-11-24T10:57:03.418Z,98.74
2022-11-24T10:58:03.378Z,98.69
2022-11-24T10:59:03.380Z,98.59
2022-11-24T11:00:03.368Z,98.38
2022-11-24T11:01:03.462Z,98.28
2022-11-24T11:02:03.428Z,98.18
2022-11-24T11:03:03.433Z,98.07
2022-11-24T11:04:03.458Z,97.87
2022-11-24T11:05:03.287Z,97.82
2022-11-24T11:06:03.309Z,97.72
2022-11-24T11:07:03.279Z,97.72
2022-11-24T11:08:05.656Z,97.62
2022-11-24T11:09:03.258Z,97.31
2022-11-24T11:10:03.231Z,97.31
2022-11-24T11:11:03.230Z,97.16
2022-11-24T11:12:27.776Z,97.06
2022-11-24T11:13:04.202Z,96.95
2022-11-24T11:14:04.622Z,96.85
2022-11-24T11:15:03.174Z,96.60
2022-11-24T11:16:03.213Z,96.60
2022-11-24T11:17:03.161Z,96.50
2022-11-24T11:18:03.136Z,96.19
2022-11-24T11:19:11.942Z,95.89
2022-11-24T11:20:04.508Z,95.78
2022-11-24T11:21:03.097Z,95.53
2022-11-24T11:22:03.085Z,95.23
2022-11-24T11:23:03.085Z,94.81
2022-11-24T11:24:03.038Z,94.40
2022-11-24T11:25:03.033Z,94.36
2022-11-24T11:26:03.011Z,94.26
2022-11-24T11:27:03.068Z,94.15
2022-11-24T11:28:07.181Z,94.05
2022-11-24T11:31:21.403Z,93.80
2022-11-24T11:34:06.149Z,93.45
2022-11-24T11:35:02.893Z,93.15
2022-11-24T11:36:02.916Z,92.94
2022-11-24T11:37:02.884Z,92.94
2022-11-24T11:38:02.847Z,92.43
2022-11-24T11:39:02.866Z,92.12
2022-11-24T11:40:02.825Z,91.97
2022-11-24T11:41:02.885Z,92.18
2022-11-24T11:42:02.856Z,91.97
2022-11-24T11:43:03.495Z,91.67
2022-11-24T11:44:02.773Z,91.26
2022-11-24T11:45:02.788Z,90.70
2022-11-24T11:46:02.843Z,89.89
2022-11-24T11:47:02.805Z,89.06
2022-11-24T11:48:02.731Z,88.56
2022-11-24T11:49:02.722Z,87.63
2022-11-24T11:50:02.695Z,87.22
2022-11-24T11:52:03.673Z,87.43
2022-11-24T11:53:02.681Z,86.30
2022-11-24T11:54:02.725Z,86.40
2022-11-24T11:55:02.655Z,86.10
2022-11-24T11:56:02.606Z,86.30
2022-11-24T11:57:02.630Z,86.40
2022-11-24T11:58:02.583Z,86.51
2022-11-24T11:59:02.596Z,86.30
2022-11-24T12:00:02.556Z,85.89
2022-11-24T12:01:02.552Z,85.89
2022-11-24T12:02:02.560Z,85.58
2022-11-24T12:03:02.625Z,85.38
2022-11-24T12:04:02.592Z,85.28
2022-11-24T12:05:02.493Z,85.48
2022-11-24T12:06:02.474Z,85.17
2022-11-24T12:07:02.484Z,84.66
2022-11-24T12:08:09.271Z,84.83
2022-11-24T12:09:19.720Z,84.93
2022-11-24T12:10:03.421Z,84.93
2022-11-24T12:11:02.437Z,85.03
2022-11-24T12:12:02.480Z,84.63
2022-11-24T12:13:02.381Z,83.81
2022-11-24T12:14:02.369Z,83.70
2022-11-24T12:15:07.328Z,83.50
2022-11-24T12:16:03.374Z,83.50
2022-11-24T12:17:02.366Z,82.98
2022-11-24T12:18:02.344Z,82.98
2022-11-24T12:19:02.302Z,82.57
2022-11-24T12:20:02.288Z,82.37
2022-11-24T12:21:02.281Z,81.96
2022-11-24T12:22:02.268Z,82.17
2022-11-24T12:23:02.250Z,82.48
2022-11-24T12:24:02.281Z,82.57
2022-11-24T12:25:02.292Z,82.78
2022-11-24T12:26:02.210Z,83.09
2022-11-24T12:27:02.218Z,82.89
2022-11-24T12:28:02.188Z,82.07
2022-11-24T12:29:02.186Z,82.17
2022-11-24T12:30:02.159Z,82.37
2022-11-24T12:31:02.164Z,82.37
2022-11-24T12:32:02.147Z,82.68
2022-11-24T12:33:02.110Z,82.78
2022-11-24T12:34:02.103Z,82.89
2022-11-24T12:35:02.091Z,82.89
2022-11-24T12:36:02.076Z,82.48
2022-11-24T12:37:02.077Z,82.57
2022-11-24T12:38:02.049Z,82.68
2022-11-24T12:39:02.056Z,82.78
2022-11-24T12:40:02.026Z,82.78
2022-11-24T12:41:25.426Z,82.68
2022-11-24T12:42:03.027Z,81.86
2022-11-24T12:43:01.987Z,81.76
2022-11-24T12:44:01.969Z,81.96
2022-11-24T12:45:01.955Z,82.17
2022-11-24T12:46:02.005Z,82.54
2022-11-24T12:47:01.990Z,82.34
2022-11-24T12:48:01.955Z,82.03
2022-11-24T12:49:01.904Z,82.03
2022-11-24T12:50:01.906Z,81.62
2022-11-24T12:51:01.875Z,82.03
2022-11-24T12:52:01.887Z,81.93
2022-11-24T12:53:01.854Z,82.03
2022-11-24T12:54:01.830Z,82.13
2022-11-24T12:55:01.818Z,82.13
2022-11-24T12:56:01.825Z,82.34
2022-11-24T12:57:01.820Z,81.93
2022-11-24T12:58:06.256Z,81.93